Ext Monserrate, Puerto Rico
Current Conditions -  °F | °C
As of 10:50 AM on Sunday 21 Dec 2014 (Local Time) from TJPS Reporting Station
Scattered Clouds Scattered Clouds  
Wind Chill: 88°   Ceiling: Unl
Heat Index: 90°   Visibility: 10mi
Dew Point: 66°   Wind: 12mph
Humidity: 49%   Direction: 120°ESE
Pressure: 30.04"   Gusts: NA
Location:  17.9903°N, 66.2815°W
Report Text: TJPS 211450Z 12010KT 10SM FEW020 SCT050 31/19 A3004
Loading
Personal Weather Stations






























Interactive Weather Map New forecast layout! Learn more

10-Day Weather Forecast

Advertisements
Track Severe Weather on mobile